Oak Ridge, MO (63769)

5:52 PM CST on February 06, 2016 (GMT -0600)
Northwest Jackson | | Change Station
CLOSE
Current Station
Personal Weather Station
Location: Jackson, MO
Elevation: 465 ft
Nearby Weather Stations

Elev 465 ft 37.39 °N, 89.68 °W | Updated 6 seconds ago

Clear
Clear
47.8 °F
Feels Like 48 °F
N
1.2
Wind Variable Wind from SSE
Gusts 1.4 mph

Today
High -- | Low -- °F
--% Chance of Precip.
Yesterday
High -- | Low -- °F
Precip. -- in
Pressure 30.27 in
Visibility 10.0 miles
Clouds Clear
Windchill 48 °F
Dew Point 15 °F
Humidity 27%
Rainfall 0.00 in
Snow Depth Not available.
6:58 AM 5:28 PM
Waning Crescent, 3% visible
METAR KCGI 062253Z AUTO 19010KT 10SM CLR 11/M04 A3026 RMK AO2 SLP248 T01061044
Pressure 30.27 in
Visibility 10.0 miles
Clouds Clear
Windchill 48 °F
Dew Point 15 °F
Humidity 27%
Rainfall 0.00 in
Snow Depth Not available.
6:58 AM 5:28 PM
Waning Crescent, 3% visible
METAR KCGI 062253Z AUTO 19010KT 10SM CLR 11/M04 A3026 RMK AO2 SLP248 T01061044

10-Day Weather Forecast

Almanac

Astronomy

Feb. 06, 2016 Rise Set
Actual Time
Civil Twilight
Nautical Twilight
Astronomical Twilight
Moon
Length of Visible Light
Length of Day
Tomorrow will be .
, % of the Moon is Illuminated

Today's Extremes

State Highs State Lows

Community

WunderPhotos

Upload Photos

1,891,098 photos uploaded!

WunderBlog® & News

Nearby

Air Quality

  Air Quality AQ Index Pollutant
Not available.

Snow Depth

Station Depth Elevation

Earthquake Activity

City Distance Mag. Time & Date
Minimum magnitude displayed is 2.5.

Coastal Water Temperatures

Place Temperature

Stations

Nearby Weather Stations

Station Location Temp. Windchill Dew Point Humidity Wind Precip. Elev Updated Type
                   

Watches & Warnings

There are currently no watches in effect.